Time;durP1;ratioP1;P1;durP2;ratioP2;P2;SDS_P1;SDS_P2;PMS_P1;PMS_P2;Temp;Humidity;BMP_temperature;BMP_pressure;BME280_temperature;BME280_humidity;BME280_pressure;Samples;Min_cycle;Max_cycle;Signal;HPM_P1;HPM_P2
2023/03/02 00:01:19;;;;;;;15.60;12.27;;;17.70;36.00;;;;;;5086482;27;45292;-66
2023/03/02 00:03:46;;;;;;;14.52;11.55;;;17.60;36.10;;;;;;5087192;28;45317;-65
2023/03/02 00:06:14;;;;;;;16.67;11.40;;;17.60;36.20;;;;;;5087181;28;45228;-66
2023/03/02 00:08:41;;;;;;;17.15;11.00;;;17.60;36.20;;;;;;5086452;27;45323;-66
2023/03/02 00:11:08;;;;;;;13.50;11.00;;;17.60;36.20;;;;;;5087359;28;45489;-65
2023/03/02 00:13:35;;;;;;;14.15;11.13;;;17.60;36.20;;;;;;5086436;28;46655;-65
2023/03/02 00:16:02;;;;;;;13.98;10.65;;;17.60;36.20;;;;;;5086677;28;45248;-64
2023/03/02 00:18:30;;;;;;;15.38;11.32;;;17.60;36.00;;;;;;5075758;27;45420;-65
2023/03/02 00:20:57;;;;;;;14.70;11.05;;;17.60;36.00;;;;;;5086059;28;45291;-66
2023/03/02 00:23:25;;;;;;;14.68;10.95;;;17.70;35.90;;;;;;5085634;27;46638;-65
2023/03/02 00:25:52;;;;;;;15.82;10.93;;;17.70;35.80;;;;;;5086870;28;45317;-68
2023/03/02 00:28:18;;;;;;;13.95;10.63;;;17.70;35.70;;;;;;5085724;27;45200;-65
2023/03/02 00:30:45;;;;;;;17.60;11.40;;;17.80;35.80;;;;;;5087028;28;45384;-65
2023/03/02 00:33:12;;;;;;;16.88;11.40;;;17.80;35.60;;;;;;5086804;28;45258;-66
2023/03/02 00:35:39;;;;;;;13.68;10.35;;;17.80;35.50;;;;;;5085275;27;45348;-68
2023/03/02 00:38:06;;;;;;;15.18;10.13;;;17.90;35.50;;;;;;5075341;27;45423;-65
2023/03/02 00:40:34;;;;;;;20.05;11.02;;;17.90;35.40;;;;;;5086631;28;45375;-66
2023/03/02 00:43:01;;;;;;;15.43;10.07;;;17.80;35.30;;;;;;5086297;28;46377;-65
2023/03/02 00:45:28;;;;;;;14.50;10.75;;;17.80;35.30;;;;;;5086461;28;45398;-66
2023/03/02 00:47:55;;;;;;;14.18;10.43;;;17.80;35.30;;;;;;5082543;27;45383;-66
2023/03/02 00:50:21;;;;;;;14.02;9.57;;;17.80;35.40;;;;;;5085938;28;45324;-66
2023/03/02 00:52:48;;;;;;;13.30;9.70;;;17.70;35.40;;;;;;5086321;28;47264;-65
2023/03/02 00:55:15;;;;;;;13.93;10.45;;;17.70;35.40;;;;;;5086373;28;45329;-65
2023/03/02 00:57:44;;;;;;;14.73;10.52;;;17.70;35.50;;;;;;5085693;27;45319;-67
2023/03/02 01:00:11;;;;;;;13.43;9.88;;;17.60;35.50;;;;;;5084656;27;45656;-66
2023/03/02 01:02:42;;;;;;;12.48;9.70;;;17.60;35.60;;;;;;5086067;28;45250;-66
2023/03/02 01:05:09;;;;;;;12.77;9.55;;;17.60;35.60;;;;;;5086377;28;45364;-66
2023/03/02 01:07:36;;;;;;;13.45;10.18;;;17.50;35.60;;;;;;5086453;28;45367;-66
2023/03/02 01:10:03;;;;;;;14.15;10.10;;;17.50;35.90;;;;;;5085054;27;45482;-65
2023/03/02 01:12:31;;;;;;;13.63;10.20;;;17.60;35.60;;;;;;5085476;27;45606;-66
2023/03/02 01:14:59;;;;;;;15.18;9.70;;;17.60;35.50;;;;;;5085500;28;45266;-66
2023/03/02 01:17:26;;;;;;;14.52;9.88;;;17.60;35.40;;;;;;5086153;28;45287;-65
2023/03/02 01:19:53;;;;;;;13.85;10.05;;;17.60;35.90;;;;;;5085256;27;45493;-66
2023/03/02 01:22:20;;;;;;;11.93;9.23;;;17.60;35.30;;;;;;5084308;27;45376;-66
2023/03/02 01:24:47;;;;;;;13.07;9.75;;;17.70;35.20;;;;;;5077507;27;45354;-65
2023/03/02 01:27:14;;;;;;;13.73;9.05;;;17.80;35.10;;;;;;5086093;28;45258;-65
2023/03/02 01:29:41;;;;;;;11.95;8.48;;;17.80;35.00;;;;;;5085155;27;45495;-65
2023/03/02 01:32:09;;;;;;;12.13;8.73;;;17.80;35.00;;;;;;5084601;27;45443;-67
2023/03/02 01:34:36;;;;;;;13.68;9.10;;;17.80;35.00;;;;;;5085612;28;45265;-65
2023/03/02 01:37:03;;;;;;;11.73;8.98;;;17.80;34.90;;;;;;5085996;28;45252;-66
2023/03/02 01:39:30;;;;;;;13.23;9.35;;;17.80;34.90;;;;;;5085223;27;45463;-65
2023/03/02 01:41:57;;;;;;;12.02;8.82;;;17.80;34.90;;;;;;5084988;28;45561;-65
2023/03/02 01:44:41;;;;;;;13.40;8.48;;;17.70;34.90;;;;;;5085557;28;45385;-65
2023/03/02 01:47:16;;;;;;;13.30;9.10;;;17.70;34.90;;;;;;5085927;28;45302;-65
2023/03/02 01:49:45;;;;;;;13.40;8.65;;;17.60;35.60;;;;;;5084895;27;45335;-65
2023/03/02 01:52:11;;;;;;;13.48;8.93;;;17.60;35.00;;;;;;5085179;28;47365;-65
2023/03/02 01:54:38;;;;;;;12.52;8.20;;;17.50;35.10;;;;;;5085662;28;45284;-65
2023/03/02 01:57:05;;;;;;;10.38;7.88;;;17.50;35.20;;;;;;5085755;28;45321;-66
2023/03/02 01:59:32;;;;;;;13.88;8.40;;;17.50;35.20;;;;;;5084261;27;45402;-65
2023/03/02 02:02:01;;;;;;;13.38;8.13;;;17.40;35.20;;;;;;5082582;27;46635;-65
2023/03/02 02:04:30;;;;;;;11.35;8.13;;;17.40;35.20;;;;;;5085134;28;45273;-65
2023/03/02 02:06:59;;;;;;;11.93;8.85;;;17.40;35.10;;;;;;5085507;28;45303;-65
2023/03/02 02:09:26;;;;;;;12.00;8.45;;;17.40;35.10;;;;;;5084473;27;45419;-66
2023/03/02 02:11:53;;;;;;;11.02;8.50;;;17.40;35.00;;;;;;5083944;27;46384;-66
2023/03/02 02:14:20;;;;;;;10.52;8.25;;;17.50;35.00;;;;;;5082805;27;45423;-65
2023/03/02 02:16:47;;;;;;;11.98;7.95;;;17.50;34.90;;;;;;5075412;27;45410;-65
2023/03/02 02:19:25;;;;;;;10.85;7.82;;;17.60;34.80;;;;;;5082829;28;45245;-65
2023/03/02 02:21:53;;;;;;;13.05;8.07;;;17.60;34.60;;;;;;5079088;27;46314;-65
2023/03/02 02:24:22;;;;;;;10.25;7.50;;;17.70;34.50;;;;;;5082853;27;45375;-65
2023/03/02 02:26:51;;;;;;;10.32;7.95;;;17.70;34.40;;;;;;5068334;28;45368;-65
2023/03/02 02:29:21;;;;;;;10.65;7.95;;;17.70;34.40;;;;;;5072030;27;45315;-66
2023/03/02 02:31:50;;;;;;;11.02;8.18;;;17.80;34.30;;;;;;5073625;27;45561;-65
2023/03/02 02:34:21;;;;;;;11.43;8.07;;;17.80;34.20;;;;;;5083437;28;45323;-65
2023/03/02 02:36:48;;;;;;;10.55;7.35;;;17.80;34.20;;;;;;5088441;28;45389;-65
2023/03/02 02:39:17;;;;;;;11.68;7.72;;;17.80;34.20;;;;;;5088671;28;45423;-65
2023/03/02 02:41:56;;;;;;;10.90;7.97;;;17.80;34.20;;;;;;5088320;28;45348;-65
2023/03/02 02:44:23;;;;;;;10.10;7.60;;;17.70;34.20;;;;;;5088539;28;45317;-65
2023/03/02 02:46:50;;;;;;;10.25;7.78;;;17.70;34.20;;;;;;5088516;28;45343;-65
2023/03/02 02:49:26;;;;;;;12.35;8.02;;;17.60;34.30;;;;;;5085486;27;45392;-65
2023/03/02 02:51:52;;;;;;;10.07;7.28;;;17.60;35.00;;;;;;5087024;27;46645;-66
2023/03/02 02:54:19;;;;;;;10.60;7.53;;;17.60;34.40;;;;;;5088344;28;45262;-66
2023/03/02 02:56:46;;;;;;;9.20;7.00;;;17.50;34.50;;;;;;5088286;27;45253;-69
2023/03/02 02:59:16;;;;;;;10.05;6.97;;;17.50;34.50;;;;;;5077388;28;45360;-64
2023/03/02 03:01:43;;;;;;;9.93;7.28;;;17.40;34.60;;;;;;5067403;28;45561;-64
2023/03/02 03:04:11;;;;;;;10.10;7.50;;;17.40;34.70;;;;;;5072466;27;45698;-64
2023/03/02 03:06:40;;;;;;;9.30;6.97;;;17.40;34.70;;;;;;5075160;27;45253;-64
2023/03/02 03:09:07;;;;;;;9.15;7.07;;;17.40;34.70;;;;;;5085034;27;45503;-64
2023/03/02 03:11:35;;;;;;;9.68;7.53;;;17.40;34.60;;;;;;5085470;27;46739;-64
2023/03/02 03:14:04;;;;;;;9.95;6.93;;;17.40;34.60;;;;;;5087435;28;45373;-64
2023/03/02 03:16:32;;;;;;;10.93;7.38;;;17.40;34.50;;;;;;5088032;28;45282;-64
2023/03/02 03:19:01;;;;;;;9.70;7.43;;;17.40;34.40;;;;;;5088002;28;45396;-64
2023/03/02 03:21:29;;;;;;;10.02;7.43;;;17.50;34.40;;;;;;5085780;27;45516;-64
2023/03/02 03:23:55;;;;;;;9.02;6.78;;;17.50;34.30;;;;;;5087946;28;45277;-66
2023/03/02 03:26:22;;;;;;;10.68;7.72;;;17.50;34.20;;;;;;5086695;27;45285;-64
2023/03/02 03:28:49;;;;;;;11.05;6.75;;;17.50;34.10;;;;;;5088295;28;45334;-64
2023/03/02 03:31:16;;;;;;;9.13;6.95;;;17.60;34.10;;;;;;5086126;27;46713;-65
2023/03/02 03:33:45;;;;;;;12.43;7.78;;;17.60;34.00;;;;;;5079203;27;45234;-65
2023/03/02 03:36:12;;;;;;;16.75;10.63;;;17.70;34.00;;;;;;5086895;27;45412;-64
2023/03/02 03:38:39;;;;;;;17.50;10.52;;;17.70;34.00;;;;;;5074666;28;45253;-64
2023/03/02 03:41:06;;;;;;;17.33;11.23;;;17.70;33.80;;;;;;5066838;28;46775;-65
2023/03/02 03:43:35;;;;;;;16.77;10.35;;;17.70;34.50;;;;;;5066802;28;45337;-64
2023/03/02 03:46:02;;;;;;;16.58;9.90;;;17.70;33.80;;;;;;5067014;28;45292;-64
2023/03/02 03:48:29;;;;;;;16.30;10.15;;;17.70;33.90;;;;;;5067216;28;45385;-64
2023/03/02 03:50:58;;;;;;;15.98;10.27;;;17.60;33.90;;;;;;5066748;28;46330;-64
2023/03/02 03:53:25;;;;;;;18.15;10.18;;;17.60;34.00;;;;;;5066852;28;45396;-64
2023/03/02 03:55:52;;;;;;;18.00;10.18;;;17.60;34.00;;;;;;5066821;28;45338;-64
2023/03/02 03:58:19;;;;;;;16.83;9.95;;;17.50;34.10;;;;;;5066855;28;45561;-64
2023/03/02 04:00:46;;;;;;;15.65;10.02;;;17.50;34.20;;;;;;5066587;28;45385;-64
2023/03/02 04:03:13;;;;;;;16.50;9.32;;;17.50;34.30;;;;;;5066379;28;45355;-64
2023/03/02 04:05:40;;;;;;;11.60;8.30;;;17.40;34.30;;;;;;5066346;28;45320;-64
2023/03/02 04:08:08;;;;;;;14.75;9.50;;;17.40;34.30;;;;;;5066744;28;45214;-64
2023/03/02 04:10:35;;;;;;;14.65;8.00;;;17.40;34.30;;;;;;5066394;28;46291;-64
2023/03/02 04:13:02;;;;;;;14.88;9.93;;;17.40;34.30;;;;;;5066095;28;45313;-64
2023/03/02 04:15:29;;;;;;;12.82;8.95;;;17.40;34.30;;;;;;5066044;28;46453;-64
2023/03/02 04:17:56;;;;;;;12.40;8.52;;;17.40;34.30;;;;;;5066231;28;45392;-64
2023/03/02 04:20:23;;;;;;;16.27;8.45;;;17.50;34.20;;;;;;5066033;28;46382;-64
2023/03/02 04:22:51;;;;;;;12.98;8.10;;;17.50;34.10;;;;;;5066045;28;45266;-69
2023/03/02 04:25:20;;;;;;;13.70;8.45;;;17.50;34.60;;;;;;5066285;28;45274;-64
2023/03/02 04:27:47;;;;;;;12.68;8.13;;;17.60;33.90;;;;;;5066426;28;45328;-64
2023/03/02 04:30:14;;;;;;;14.27;8.85;;;17.60;33.80;;;;;;5065870;28;46765;-64
2023/03/02 04:32:42;;;;;;;13.30;8.45;;;17.60;33.80;;;;;;5065838;28;45324;-64
2023/03/02 04:35:09;;;;;;;14.07;8.57;;;17.60;33.70;;;;;;5065981;28;44757;-64
2023/03/02 04:37:36;;;;;;;14.75;8.75;;;17.60;33.70;;;;;;5065980;28;45498;-66
2023/03/02 04:40:04;;;;;;;11.98;8.02;;;17.60;33.70;;;;;;5065740;28;45308;-64
2023/03/02 04:42:32;;;;;;;12.63;8.40;;;17.60;33.70;;;;;;5065739;28;45303;-64
2023/03/02 04:44:59;;;;;;;13.77;8.23;;;17.60;33.80;;;;;;5066011;28;45352;-64
2023/03/02 04:47:26;;;;;;;11.30;8.07;;;17.50;33.80;;;;;;5065382;28;45550;-63
2023/03/02 04:49:55;;;;;;;11.70;8.27;;;17.50;33.90;;;;;;5065534;28;45454;-64
2023/03/02 04:52:22;;;;;;;10.55;8.20;;;17.50;33.90;;;;;;5065509;28;45476;-63
2023/03/02 04:54:49;;;;;;;13.73;7.55;;;17.50;34.00;;;;;;5065751;28;45377;-64
2023/03/02 04:57:15;;;;;;;13.40;7.70;;;17.40;34.00;;;;;;5065844;28;45387;-64
2023/03/02 04:59:44;;;;;;;12.13;7.57;;;17.40;34.00;;;;;;5065291;28;46325;-64
2023/03/02 05:02:10;;;;;;;13.55;8.45;;;17.40;34.00;;;;;;5065610;28;45254;-64
2023/03/02 05:04:39;;;;;;;12.65;8.07;;;17.40;34.00;;;;;;5065639;28;45331;-65
2023/03/02 05:07:06;;;;;;;13.40;7.57;;;17.50;34.00;;;;;;5065551;28;45267;-64
2023/03/02 05:09:33;;;;;;;9.60;6.75;;;17.50;34.00;;;;;;5065375;28;46736;-64
2023/03/02 05:12:00;;;;;;;10.18;6.97;;;17.50;34.00;;;;;;5065216;28;45268;-64
2023/03/02 05:14:27;;;;;;;9.85;6.70;;;17.50;34.00;;;;;;5065114;28;45330;-64
2023/03/02 05:16:55;;;;;;;10.68;7.15;;;17.50;34.00;;;;;;5065661;28;45428;-64
2023/03/02 05:19:21;;;;;;;8.00;6.15;;;17.50;33.90;;;;;;5064960;28;46719;-63
2023/03/02 05:21:48;;;;;;;9.68;7.20;;;17.50;33.90;;;;;;5065180;28;45384;-65
2023/03/02 05:24:15;;;;;;;8.35;6.35;;;17.50;33.90;;;;;;5065328;28;45385;-64
2023/03/02 05:26:42;;;;;;;9.63;7.00;;;17.50;33.80;;;;;;5065500;28;45484;-64
2023/03/02 05:29:09;;;;;;;11.15;7.13;;;17.50;33.80;;;;;;5065313;28;45391;-64
2023/03/02 05:31:37;;;;;;;11.40;6.78;;;17.50;33.80;;;;;;5065260;28;45268;-64
2023/03/02 05:34:06;;;;;;;9.52;6.80;;;17.60;33.80;;;;;;5065015;28;45347;-64
2023/03/02 05:36:33;;;;;;;9.05;6.78;;;17.60;33.70;;;;;;5065302;28;45615;-64
2023/03/02 05:39:00;;;;;;;11.32;6.82;;;17.60;33.70;;;;;;5065063;28;45465;-65
2023/03/02 05:41:27;;;;;;;10.57;6.75;;;17.60;33.70;;;;;;5065029;28;45352;-64
2023/03/02 05:43:54;;;;;;;12.52;7.25;;;17.50;33.70;;;;;;5065064;28;45255;-64
2023/03/02 05:46:21;;;;;;;11.18;7.35;;;17.50;33.70;;;;;;5065213;28;45309;-64
2023/03/02 05:48:48;;;;;;;8.50;6.80;;;17.50;33.60;;;;;;5064761;28;45634;-64
2023/03/02 05:51:16;;;;;;;10.60;6.80;;;17.60;33.70;;;;;;5064717;28;45350;-64
2023/03/02 05:53:43;;;;;;;9.00;6.78;;;17.60;33.60;;;;;;5064853;28;45392;-64
2023/03/02 05:56:10;;;;;;;9.52;6.85;;;17.60;33.60;;;;;;5065190;28;45451;-64
2023/03/02 05:58:37;;;;;;;9.25;6.60;;;17.60;33.60;;;;;;5064628;28;46368;-65
2023/03/02 06:01:08;;;;;;;9.45;7.50;;;17.60;33.70;;;;;;5068025;28;45298;-63
2023/03/02 06:03:34;;;;;;;10.10;7.03;;;17.60;33.60;;;;;;5065850;28;45261;-64
2023/03/02 06:06:01;;;;;;;7.47;6.07;;;17.60;33.60;;;;;;5068557;28;45296;-64
2023/03/02 06:08:30;;;;;;;11.40;6.70;;;17.60;33.60;;;;;;5068157;28;45354;-64
2023/03/02 06:10:57;;;;;;;8.32;6.38;;;17.60;33.60;;;;;;5068235;28;45398;-64
2023/03/02 06:13:24;;;;;;;9.90;6.90;;;17.60;33.60;;;;;;5068262;28;45269;-64
2023/03/02 06:15:50;;;;;;;8.98;6.75;;;17.60;33.60;;;;;;5068211;28;45205;-64
2023/03/02 06:18:17;;;;;;;8.18;6.45;;;17.60;33.70;;;;;;5068059;28;45523;-64
2023/03/02 06:20:44;;;;;;;8.50;6.40;;;17.50;33.70;;;;;;5068182;28;45423;-64
2023/03/02 06:23:11;;;;;;;8.73;6.35;;;17.50;33.70;;;;;;5068216;28;45372;-64
2023/03/02 06:25:42;;;;;;;10.55;6.97;;;17.50;33.90;;;;;;5068484;28;45129;-65
2023/03/02 06:28:09;;;;;;;8.98;6.15;;;17.40;33.80;;;;;;5067781;28;45506;-64
2023/03/02 06:30:36;;;;;;;8.25;6.68;;;17.40;34.00;;;;;;5067853;28;45314;-64
2023/03/02 06:33:02;;;;;;;8.73;6.28;;;17.40;34.10;;;;;;5067644;28;45408;-64
2023/03/02 06:35:29;;;;;;;9.48;6.05;;;17.30;34.10;;;;;;5068227;28;45440;-64
2023/03/02 06:37:56;;;;;;;10.57;6.82;;;17.30;34.10;;;;;;5067607;28;45360;-64
2023/03/02 06:40:26;;;;;;;9.13;6.63;;;17.30;34.10;;;;;;5067654;28;45565;-64
2023/03/02 06:42:54;;;;;;;10.48;6.97;;;17.30;34.00;;;;;;5067764;28;45344;-64
2023/03/02 06:45:21;;;;;;;8.82;6.45;;;17.30;34.00;;;;;;5067857;28;45285;-64
2023/03/02 06:47:48;;;;;;;9.07;6.40;;;17.40;34.00;;;;;;5067551;28;46712;-64
2023/03/02 06:50:15;;;;;;;9.27;6.18;;;17.40;34.00;;;;;;5065086;28;45380;-63
2023/03/02 06:52:41;;;;;;;8.65;5.95;;;17.40;33.90;;;;;;5067689;28;45402;-64
2023/03/02 06:55:09;;;;;;;9.32;7.07;;;17.40;33.80;;;;;;5067913;28;45202;-64
2023/03/02 06:57:36;;;;;;;7.70;5.65;;;17.50;33.80;;;;;;5067556;28;47396;-64
2023/03/02 07:00:08;;;;;;;8.45;6.57;;;17.50;33.70;;;;;;5067303;28;45309;-64
2023/03/02 07:02:35;;;;;;;9.85;6.30;;;17.50;33.60;;;;;;5067447;28;45316;-64
2023/03/02 07:05:02;;;;;;;8.07;6.57;;;17.50;33.60;;;;;;5067826;28;45326;-64
2023/03/02 07:07:29;;;;;;;8.52;6.50;;;17.50;33.50;;;;;;5067350;28;45406;-64
2023/03/02 07:09:59;;;;;;;7.93;6.65;;;17.50;33.50;;;;;;5066736;28;45317;-64
2023/03/02 07:12:25;;;;;;;8.50;6.10;;;17.50;33.60;;;;;;5067536;28;45143;-65
2023/03/02 07:14:52;;;;;;;8.35;6.20;;;17.50;33.60;;;;;;5067166;28;45200;-64
2023/03/02 07:17:20;;;;;;;8.52;6.05;;;17.50;33.60;;;;;;5067099;28;45516;-64
2023/03/02 07:19:47;;;;;;;9.77;6.28;;;17.50;33.60;;;;;;5067041;28;45391;-64
2023/03/02 07:22:14;;;;;;;9.02;6.55;;;17.50;33.70;;;;;;5067211;28;45255;-65
2023/03/02 07:24:41;;;;;;;6.43;5.78;;;17.40;33.70;;;;;;5067432;28;45297;-64
2023/03/02 07:27:08;;;;;;;7.78;6.35;;;17.40;33.80;;;;;;5066962;28;46646;-65
2023/03/02 07:29:35;;;;;;;9.02;6.40;;;17.40;33.90;;;;;;5066830;28;45265;-64
2023/03/02 07:32:01;;;;;;;11.27;6.38;;;17.40;33.90;;;;;;5067203;28;45297;-64
2023/03/02 07:34:30;;;;;;;6.85;5.85;;;17.40;33.90;;;;;;5067371;28;45419;-64
2023/03/02 07:36:57;;;;;;;8.07;5.88;;;17.40;33.90;;;;;;5066556;28;46681;-63
2023/03/02 07:39:23;;;;;;;7.28;6.00;;;17.40;33.90;;;;;;5066717;28;45329;-64
2023/03/02 07:41:50;;;;;;;7.65;6.32;;;17.40;33.90;;;;;;5067046;28;45312;-64
2023/03/02 07:44:17;;;;;;;9.40;6.88;;;17.40;33.80;;;;;;5066864;28;45383;-64
2023/03/02 07:46:44;;;;;;;7.22;5.70;;;17.50;33.90;;;;;;5066610;28;46401;-64
2023/03/02 07:49:11;;;;;;;8.48;6.20;;;17.50;33.80;;;;;;5066504;28;45246;-65
2023/03/02 07:51:39;;;;;;;8.75;6.30;;;17.50;33.70;;;;;;5066662;28;45262;-65
2023/03/02 07:54:06;;;;;;;8.57;6.40;;;17.50;33.70;;;;;;5066636;28;45389;-64
2023/03/02 07:56:33;;;;;;;8.48;6.15;;;17.50;33.70;;;;;;5066334;28;46665;-64
2023/03/02 07:59:00;;;;;;;8.80;6.10;;;17.50;33.70;;;;;;5066432;28;45188;-64
2023/03/02 08:01:27;;;;;;;9.15;6.43;;;17.50;33.70;;;;;;5066574;28;45365;-64
2023/03/02 08:03:54;;;;;;;8.02;6.57;;;17.60;33.70;;;;;;5066766;28;45266;-64
2023/03/02 08:06:20;;;;;;;8.45;6.65;;;17.60;33.70;;;;;;5066302;28;45494;-64
2023/03/02 08:08:49;;;;;;;8.48;6.05;;;17.60;33.70;;;;;;5066594;28;45341;-65
2023/03/02 08:11:16;;;;;;;10.05;6.40;;;17.60;33.60;;;;;;5066347;28;45257;-64
2023/03/02 08:13:43;;;;;;;10.43;6.13;;;17.60;33.70;;;;;;5066498;28;45310;-64
2023/03/02 08:16:11;;;;;;;9.45;6.20;;;17.50;33.70;;;;;;5065842;28;46667;-64
2023/03/02 08:18:38;;;;;;;8.45;6.40;;;17.50;33.70;;;;;;5066042;28;45340;-66
2023/03/02 08:21:05;;;;;;;7.88;6.22;;;17.50;33.80;;;;;;5066393;28;45317;-64
2023/03/02 08:23:32;;;;;;;7.05;5.75;;;17.50;33.90;;;;;;5065061;28;45507;-64
2023/03/02 08:26:00;;;;;;;8.13;6.28;;;17.40;33.90;;;;;;5066067;28;45499;-64
2023/03/02 08:28:27;;;;;;;8.40;6.28;;;17.40;34.00;;;;;;5065980;28;45432;-64
2023/03/02 08:30:57;;;;;;;6.35;5.20;;;17.40;34.00;;;;;;5066252;28;45298;-64
2023/03/02 08:33:24;;;;;;;8.60;6.25;;;17.40;34.10;;;;;;5066175;28;45416;-65
2023/03/02 08:35:55;;;;;;;6.78;5.88;;;17.40;34.10;;;;;;5065699;28;45419;-65
2023/03/02 08:38:22;;;;;;;8.23;6.18;;;17.40;34.10;;;;;;5066014;28;45260;-64
2023/03/02 08:40:50;;;;;;;7.82;6.35;;;17.40;34.00;;;;;;5065951;28;45444;-65
2023/03/02 08:43:18;;;;;;;9.05;6.35;;;17.40;34.00;;;;;;5066117;28;45334;-64
2023/03/02 08:45:45;;;;;;;8.68;5.88;;;17.40;34.00;;;;;;5065938;28;47449;-64
2023/03/02 08:48:12;;;;;;;8.63;6.20;;;17.40;33.90;;;;;;5065701;28;45262;-64
2023/03/02 08:50:38;;;;;;;8.43;6.18;;;17.50;33.90;;;;;;5065939;28;45305;-64
2023/03/02 08:53:06;;;;;;;8.77;6.25;;;17.50;33.90;;;;;;5065956;28;45369;-65
2023/03/02 08:55:35;;;;;;;8.93;6.35;;;17.50;33.80;;;;;;5065653;28;45419;-64
2023/03/02 08:58:02;;;;;;;7.50;6.30;;;17.60;33.80;;;;;;5065520;28;45273;-64
2023/03/02 09:00:30;;;;;;;9.20;6.88;;;17.60;33.70;;;;;;5065709;28;45312;-64
2023/03/02 09:02:57;;;;;;;8.57;6.40;;;17.60;33.70;;;;;;5065762;28;45330;-64
2023/03/02 09:05:24;;;;;;;8.15;5.82;;;17.70;33.70;;;;;;5065580;28;46380;-64
2023/03/02 09:07:51;;;;;;;8.38;6.05;;;17.70;33.70;;;;;;5065611;28;45309;-64
2023/03/02 09:10:18;;;;;;;10.45;6.82;;;17.60;33.70;;;;;;5065385;28;45342;-64
2023/03/02 09:12:45;;;;;;;8.50;6.10;;;17.60;33.70;;;;;;5065740;28;45355;-65
2023/03/02 09:15:12;;;;;;;7.63;6.53;;;17.60;33.70;;;;;;5065023;28;45217;-65
2023/03/02 09:17:40;;;;;;;6.85;5.85;;;17.60;33.80;;;;;;5065287;28;45334;-64
2023/03/02 09:20:09;;;;;;;9.20;6.03;;;17.60;33.90;;;;;;5077421;28;45202;-69
2023/03/02 09:22:35;;;;;;;10.73;6.57;;;17.50;33.90;;;;;;5079429;27;45387;-64
2023/03/02 09:25:02;;;;;;;10.68;6.53;;;17.50;34.00;;;;;;5084166;28;45932;-64
2023/03/02 09:27:29;;;;;;;11.75;6.57;;;17.50;34.10;;;;;;5084942;28;45282;-64
2023/03/02 09:29:56;;;;;;;9.50;7.40;;;17.50;34.20;;;;;;5080957;28;45475;-64
2023/03/02 09:32:23;;;;;;;12.90;6.90;;;17.40;34.40;;;;;;5080354;27;45403;-64
2023/03/02 09:34:51;;;;;;;9.85;6.93;;;17.40;34.60;;;;;;5088497;27;47748;-64
2023/03/02 09:37:18;;;;;;;9.95;6.85;;;17.40;34.70;;;;;;5088438;28;45444;-64
2023/03/02 09:39:45;;;;;;;10.88;6.25;;;17.40;34.60;;;;;;5089122;28;45451;-64
2023/03/02 09:42:22;;;;;;;13.15;6.65;;;17.40;34.70;;;;;;5089162;28;45308;-64
2023/03/02 09:45:17;;;;;;;11.45;6.90;;;17.40;34.70;;;;;;5088676;28;45306;-65
2023/03/02 09:47:47;;;;;;;9.40;6.53;;;17.40;34.70;;;;;;5075764;28;45275;-65
2023/03/02 09:50:26;;;;;;;11.02;6.75;;;17.40;34.60;;;;;;5076609;28;45446;-64
2023/03/02 09:53:02;;;;;;;10.98;6.07;;;17.40;34.60;;;;;;5075867;28;45296;-65
2023/03/02 09:55:32;;;;;;;8.75;6.13;;;17.40;34.50;;;;;;5069036;28;46605;-65
2023/03/02 09:58:01;;;;;;;10.05;6.60;;;17.50;34.50;;;;;;5088570;28;45349;-64
2023/03/02 10:00:29;;;;;;;11.30;6.55;;;17.50;34.40;;;;;;5088343;28;45329;-64
2023/03/02 10:02:56;;;;;;;11.45;7.00;;;17.50;34.30;;;;;;5088961;28;45432;-64
2023/03/02 10:05:27;;;;;;;8.50;6.65;;;17.50;34.30;;;;;;5088416;28;46547;-63
2023/03/02 10:07:54;;;;;;;14.27;7.80;;;17.60;34.30;;;;;;5088644;28;45384;-64
2023/03/02 10:10:26;;;;;;;11.48;7.55;;;17.60;34.10;;;;;;5088695;28;45407;-64
2023/03/02 10:13:05;;;;;;;9.50;6.90;;;17.60;34.10;;;;;;5088898;28;45246;-64
2023/03/02 10:15:36;;;;;;;9.13;6.85;;;17.60;34.10;;;;;;5088162;28;45746;-64
2023/03/02 10:18:09;;;;;;;9.82;7.30;;;17.60;34.80;;;;;;5088145;28;45213;-64
2023/03/02 10:20:41;;;;;;;15.23;7.07;;;17.60;34.20;;;;;;5088355;28;45255;-65
2023/03/02 10:23:19;;;;;;;9.65;6.60;;;17.60;34.20;;;;;;5087993;28;45364;-64
2023/03/02 10:25:48;;;;;;;9.50;7.20;;;17.60;34.30;;;;;;5086445;28;46413;-64
2023/03/02 10:28:17;;;;;;;12.38;6.82;;;17.60;34.30;;;;;;5070828;28;45325;-64
2023/03/02 10:30:44;;;;;;;10.80;7.10;;;17.50;34.30;;;;;;5072025;28;45382;-65
2023/03/02 10:33:13;;;;;;;10.20;7.20;;;17.50;34.40;;;;;;5083262;28;45533;-64
2023/03/02 10:35:43;;;;;;;9.02;6.82;;;17.50;34.40;;;;;;5084929;28;46407;-64
2023/03/02 10:38:12;;;;;;;10.40;7.28;;;17.50;34.50;;;;;;5087885;28;45224;-65
2023/03/02 10:40:40;;;;;;;9.90;7.45;;;17.50;34.60;;;;;;5076926;28;45274;-67
2023/03/02 10:43:11;;;;;;;12.70;8.13;;;17.50;34.60;;;;;;5071108;28;45557;-64
2023/03/02 10:45:38;;;;;;;12.18;7.75;;;17.40;34.50;;;;;;5083880;27;45324;-63
2023/03/02 10:48:06;;;;;;;11.18;7.82;;;17.40;34.80;;;;;;5079417;28;45303;-64
2023/03/02 10:50:33;;;;;;;10.82;7.35;;;17.50;34.70;;;;;;5084771;27;45472;-63
2023/03/02 10:53:01;;;;;;;9.68;6.72;;;17.60;34.60;;;;;;5078895;28;45420;-63
2023/03/02 10:55:28;;;;;;;13.70;7.63;;;17.70;35.00;;;;;;5077299;28;45384;-63
2023/03/02 10:58:02;;;;;;;10.73;7.18;;;17.80;34.30;;;;;;5082118;28;45379;-63
2023/03/02 11:00:30;;;;;;;11.52;7.45;;;17.90;34.10;;;;;;5087733;28;45151;-63
2023/03/02 11:02:58;;;;;;;10.40;7.65;;;18.00;34.00;;;;;;5087860;28;45354;-64
2023/03/02 11:05:30;;;;;;;11.05;6.93;;;18.00;33.90;;;;;;5081236;27;45604;-64
2023/03/02 11:07:58;;;;;;;9.48;6.90;;;18.00;33.90;;;;;;5076581;28;45376;-65
2023/03/02 11:10:27;;;;;;;10.00;6.63;;;18.00;33.90;;;;;;5079447;28;45436;-63
2023/03/02 11:12:55;;;;;;;11.02;7.05;;;18.00;33.90;;;;;;5079849;28;45262;-64
2023/03/02 11:15:24;;;;;;;9.05;7.05;;;18.00;33.90;;;;;;5083586;27;46410;-63
2023/03/02 11:17:53;;;;;;;10.55;7.45;;;18.00;33.90;;;;;;5067077;28;45392;-64
2023/03/02 11:20:23;;;;;;;9.15;6.40;;;18.00;34.00;;;;;;5087258;28;45286;-63
2023/03/02 11:22:56;;;;;;;9.57;7.30;;;18.00;34.00;;;;;;5087654;28;45371;-64
2023/03/02 11:25:27;;;;;;;8.95;7.05;;;18.00;34.00;;;;;;5085605;28;45568;-64
2023/03/02 11:27:57;;;;;;;10.35;7.07;;;18.00;34.10;;;;;;5079625;28;45274;-64
2023/03/02 11:30:25;;;;;;;11.70;7.50;;;18.00;34.10;;;;;;5086527;28;45456;-64
2023/03/02 11:32:55;;;;;;;10.52;6.90;;;17.90;34.10;;;;;;5067401;28;45268;-64
2023/03/02 11:35:29;;;;;;;9.90;7.32;;;17.90;34.20;;;;;;5071314;28;46577;-64
2023/03/02 11:37:57;;;;;;;10.02;6.75;;;17.90;34.20;;;;;;5087171;28;45193;-63
2023/03/02 11:40:29;;;;;;;10.43;7.13;;;17.90;34.30;;;;;;5086556;28;45415;-64
2023/03/02 11:42:56;;;;;;;11.57;7.25;;;17.90;34.30;;;;;;5087194;28;45499;-64
2023/03/02 11:45:26;;;;;;;10.55;7.35;;;17.80;34.30;;;;;;5086552;28;45631;-64
2023/03/02 11:47:55;;;;;;;9.55;7.47;;;17.80;34.40;;;;;;5079523;28;45213;-64
2023/03/02 11:50:22;;;;;;;11.57;7.20;;;17.80;34.40;;;;;;5067748;28;45262;-64
2023/03/02 11:52:51;;;;;;;10.45;6.85;;;17.80;34.40;;;;;;5067528;28;45468;-64
2023/03/02 11:55:19;;;;;;;7.95;6.75;;;17.70;34.50;;;;;;5066492;28;45247;-65
2023/03/02 11:57:49;;;;;;;10.65;6.95;;;17.70;34.50;;;;;;5066312;28;45259;-64
2023/03/02 12:00:22;;;;;;;9.50;7.00;;;17.70;34.60;;;;;;5086018;28;45341;-64
2023/03/02 12:02:59;;;;;;;9.73;6.97;;;17.60;34.60;;;;;;5084768;28;45413;-64
2023/03/02 12:05:27;;;;;;;8.50;7.10;;;17.70;34.80;;;;;;5086491;28;45397;-64
2023/03/02 12:07:58;;;;;;;10.30;7.10;;;17.60;34.70;;;;;;5076779;28;45298;-66
2023/03/02 12:10:27;;;;;;;10.77;7.95;;;17.60;35.00;;;;;;5079898;28;45360;-67
2023/03/02 12:13:14;;;;;;;10.95;7.78;;;17.60;35.00;;;;;;5080269;28;45499;-69
2023/03/02 12:15:42;;;;;;;11.20;7.35;;;17.50;35.10;;;;;;5078780;28;46723;-66
2023/03/02 12:18:27;;;;;;;9.30;6.53;;;17.50;35.10;;;;;;5082223;28;45313;-68
2023/03/02 12:21:02;;;;;;;12.75;6.88;;;17.50;35.10;;;;;;5080972;28;45510;-66
2023/03/02 12:23:29;;;;;;;9.63;7.00;;;17.60;35.10;;;;;;5085022;28;45416;-66
2023/03/02 12:26:05;;;;;;;9.23;7.25;;;17.70;35.10;;;;;;5085677;28;45370;-65
2023/03/02 12:28:34;;;;;;;11.32;7.53;;;17.80;35.30;;;;;;5086418;28;45313;-67
2023/03/02 12:31:06;;;;;;;9.60;6.93;;;17.80;35.30;;;;;;5086366;28;45270;-66
2023/03/02 12:33:45;;;;;;;10.15;7.50;;;18.00;35.40;;;;;;5078598;28;45451;-66
2023/03/02 12:36:14;;;;;;;7.22;6.38;;;18.00;35.40;;;;;;5085564;28;45296;-67
2023/03/02 12:38:42;;;;;;;8.95;7.32;;;18.10;35.40;;;;;;5085987;28;45423;-67
2023/03/02 12:41:20;;;;;;;10.20;7.00;;;18.10;35.40;;;;;;5079503;28;45376;-66
2023/03/02 12:43:56;;;;;;;10.70;6.97;;;18.20;35.80;;;;;;5065982;28;45468;-67
2023/03/02 12:46:33;;;;;;;8.57;6.43;;;18.20;35.30;;;;;;5065168;28;45808;-65